Weather at Charlotte Douglas International Airport

Public forecast

Using degrees Fahrenheit for public forecast. Weather courtesy of forecast.io.

Current aviation weather report (METAR) for Charlotte Douglas International Airport

Retrieved 2021/01/22 20:52 UTC (10 minutes ago):

KCLT 222052Z 23007KT 10SM SCT220 BKN250 15/M02 A2990 RMK AO2 SLP124 T01501022 56015

Aviation forecast (TAF) for Charlotte Douglas International Airport

Retrieved 2021/01/22 18:42 UTC (2 hours ago):

TAF KCLT 221740Z 2218/2324 25006KT P6SM FEW120 BKN250 FM222200 31004KT P6SM SCT250 FM230300 35004KT P6SM FEW250 FM231500 02007KT P6SM FEW250 FM232100 03004KT P6SM SKC